Time;durP1;ratioP1;P1;durP2;ratioP2;P2;SDS_P1;SDS_P2;PMS_P1;PMS_P2;Temp;Humidity;BMP_temperature;BMP_pressure;BME280_temperature;BME280_humidity;BME280_pressure;Samples;Min_cycle;Max_cycle;Signal;HPM_P1;HPM_P2
2021/09/26 00:01:46;;;;;;;0.10;0.10;;;18.30;99.90;;;;;;5032438;28;20088;-74
2021/09/26 00:04:12;;;;;;;0.20;0.20;;;18.30;99.90;;;;;;5014832;28;20237;-74
2021/09/26 00:06:37;;;;;;;0.50;0.35;;;18.30;99.90;;;;;;5014694;28;20056;-74
2021/09/26 00:09:05;;;;;;;0.10;0.10;;;18.30;99.90;;;;;;5032378;28;20092;-74
2021/09/26 00:11:31;;;;;;;0.20;0.20;;;18.30;99.90;;;;;;5014527;28;20021;-74
2021/09/26 00:13:57;;;;;;;0.38;0.38;;;18.40;99.90;;;;;;5032132;28;20460;-74
2021/09/26 00:16:23;;;;;;;0.52;0.52;;;18.30;99.90;;;;;;5032053;28;20045;-74
2021/09/26 00:18:49;;;;;;;0.10;0.10;;;18.20;99.90;;;;;;5032091;28;20504;-73
2021/09/26 00:21:16;;;;;;;3.78;1.58;;;18.30;99.90;;;;;;5014354;28;20044;-74
2021/09/26 00:23:42;;;;;;;0.10;0.10;;;18.40;99.90;;;;;;5014215;28;20079;-74
2021/09/26 00:26:08;;;;;;;4.47;0.82;;;18.40;99.90;;;;;;5014108;28;20033;-74
2021/09/26 00:28:37;;;;;;;0.10;0.10;;;18.40;99.90;;;;;;5014053;28;20374;-74
2021/09/26 00:31:04;;;;;;;0.10;0.10;;;18.40;99.90;;;;;;5032015;28;20445;-74
2021/09/26 00:33:30;;;;;;;0.45;0.45;;;18.30;99.90;;;;;;5014150;28;20029;-74
2021/09/26 00:35:56;;;;;;;0.10;0.10;;;18.20;99.90;;;;;;4997714;28;20033;-74
2021/09/26 00:38:23;;;;;;;0.10;0.10;;;18.20;99.90;;;;;;5031831;28;20024;-74
2021/09/26 00:40:50;;;;;;;0.10;0.10;;;18.20;99.90;;;;;;5031314;28;20389;-74
2021/09/26 00:43:17;;;;;;;0.10;0.10;;;18.30;99.90;;;;;;5031793;28;20153;-74
2021/09/26 00:45:44;;;;;;;0.10;0.10;;;18.40;99.90;;;;;;5031631;28;20030;-74
2021/09/26 00:48:10;;;;;;;0.20;0.20;;;18.50;99.90;;;;;;5031705;28;20118;-74
2021/09/26 00:50:36;;;;;;;0.10;0.10;;;18.60;99.90;;;;;;5031757;28;20053;-74
2021/09/26 00:53:02;;;;;;;0.10;0.10;;;18.60;99.90;;;;;;5031559;28;20410;-74
2021/09/26 00:55:31;;;;;;;0.10;0.10;;;18.60;99.90;;;;;;5031433;28;20025;-73
2021/09/26 00:57:58;;;;;;;0.68;0.68;;;18.60;99.90;;;;;;5031544;28;20036;-73
2021/09/26 01:00:25;;;;;;;0.10;0.10;;;18.60;99.90;;;;;;5031608;28;20018;-73
2021/09/26 01:02:51;;;;;;;0.10;0.10;;;18.30;99.90;;;;;;5013891;28;20060;-73
2021/09/26 01:05:19;;;;;;;0.40;0.40;;;18.20;99.90;;;;;;5031511;28;20037;-73
2021/09/26 01:08:03;;;;;;;0.10;0.10;;;18.10;99.90;;;;;;5031494;28;20427;-73
2021/09/26 01:10:33;;;;;;;0.10;0.10;;;18.00;99.90;;;;;;5031843;28;20097;-74
2021/09/26 01:13:05;;;;;;;0.22;0.22;;;18.10;99.90;;;;;;5031366;28;20511;-74
2021/09/26 01:15:45;;;;;;;0.60;0.30;;;18.00;99.90;;;;;;5031377;28;20513;-73
2021/09/26 01:18:47;;;;;;;0.30;0.30;;;18.00;99.90;;;;;;5013629;28;20481;-73
2021/09/26 01:21:25;;;;;;;0.10;0.10;;;18.00;99.90;;;;;;5031534;28;20030;-73
2021/09/26 01:24:27;;;;;;;0.10;0.10;;;18.20;99.90;;;;;;5013946;28;20030;-74
2021/09/26 01:27:24;;;;;;;0.30;0.30;;;18.30;99.90;;;;;;5031248;28;20366;-74
2021/09/26 01:30:29;;;;;;;0.10;0.10;;;18.20;99.90;;;;;;5031385;28;20053;-74
2021/09/26 01:33:21;;;;;;;0.43;0.35;;;18.20;99.90;;;;;;5031263;28;20033;-74
2021/09/26 01:35:57;;;;;;;;;;;18.10;99.90;;;;;;5013920;28;20026;-73
2021/09/26 01:38:45;;;;;;;0.20;0.20;;;18.10;99.90;;;;;;5031240;28;19956;-74
2021/09/26 01:41:24;;;;;;;0.10;0.10;;;18.00;99.90;;;;;;5013621;28;20443;-74
2021/09/26 01:43:51;;;;;;;0.30;0.30;;;18.10;99.90;;;;;;5031285;28;20022;-74
2021/09/26 01:46:24;;;;;;;0.10;0.10;;;18.00;99.90;;;;;;5031120;28;20029;-74
2021/09/26 01:49:01;;;;;;;0.10;0.10;;;18.00;99.90;;;;;;5031208;28;20040;-74
2021/09/26 01:51:32;;;;;;;0.10;0.10;;;18.10;99.90;;;;;;5014623;28;20029;-74
2021/09/26 01:53:59;;;;;;;0.00;0.00;;;18.20;99.90;;;;;;5034901;28;20067;-73
2021/09/26 01:56:26;;;;;;;0.10;0.10;;;18.20;99.90;;;;;;5034782;28;20340;-74
2021/09/26 01:58:52;;;;;;;0.10;0.10;;;18.20;99.90;;;;;;5017075;28;20043;-74
2021/09/26 02:01:18;;;;;;;0.10;0.10;;;18.20;99.90;;;;;;5017065;28;20028;-74
2021/09/26 02:03:46;;;;;;;6.60;0.80;;;18.10;99.90;;;;;;5034678;28;20440;-74
2021/09/26 02:06:13;;;;;;;0.30;0.30;;;18.10;99.90;;;;;;5034568;28;20068;-74
2021/09/26 02:08:44;;;;;;;0.65;0.65;;;18.10;99.90;;;;;;5016750;28;20029;-74
2021/09/26 02:11:12;;;;;;;0.50;0.50;;;18.10;99.90;;;;;;5016937;28;20033;-74
2021/09/26 02:13:41;;;;;;;0.10;0.10;;;18.10;99.90;;;;;;5034356;28;20032;-73
2021/09/26 02:16:09;;;;;;;0.10;0.10;;;18.20;99.90;;;;;;5034276;28;20079;-74
2021/09/26 02:18:36;;;;;;;0.10;0.10;;;18.20;99.90;;;;;;5034330;28;20112;-74
2021/09/26 02:21:03;;;;;;;0.45;0.45;;;18.20;99.90;;;;;;5016841;28;20469;-74
2021/09/26 02:23:29;;;;;;;0.43;0.43;;;18.30;99.90;;;;;;5016753;28;20389;-74
2021/09/26 02:25:56;;;;;;;0.10;0.10;;;18.30;99.90;;;;;;5016635;28;20522;-74
2021/09/26 02:28:22;;;;;;;0.10;0.10;;;18.20;99.90;;;;;;5034347;28;20100;-74
2021/09/26 02:30:49;;;;;;;0.10;0.10;;;18.10;99.90;;;;;;5034288;28;20028;-74
2021/09/26 02:33:15;;;;;;;0.10;0.10;;;18.10;99.90;;;;;;5016435;28;20029;-74
2021/09/26 02:35:42;;;;;;;0.10;0.10;;;18.10;99.90;;;;;;5034143;28;20484;-74
2021/09/26 02:38:08;;;;;;;0.10;0.10;;;18.00;99.90;;;;;;5034013;28;20024;-74
2021/09/26 02:40:34;;;;;;;0.10;0.10;;;18.10;99.90;;;;;;5016171;28;20021;-74
2021/09/26 02:43:00;;;;;;;0.20;0.20;;;18.00;99.90;;;;;;5016130;28;20040;-74
2021/09/26 02:45:32;;;;;;;0.10;0.10;;;18.00;99.90;;;;;;5016290;28;20029;-74
2021/09/26 02:48:07;;;;;;;0.10;0.10;;;18.00;99.90;;;;;;5033936;28;20028;-74
2021/09/26 02:50:34;;;;;;;0.15;0.15;;;18.10;99.90;;;;;;5016420;28;20033;-74
2021/09/26 02:53:01;;;;;;;0.10;0.10;;;18.00;99.90;;;;;;5016227;28;20533;-74
2021/09/26 02:55:28;;;;;;;0.10;0.10;;;18.10;99.90;;;;;;5033735;28;20021;-74
2021/09/26 02:57:54;;;;;;;0.10;0.10;;;18.00;99.90;;;;;;5016221;28;20025;-74
2021/09/26 03:00:20;;;;;;;0.10;0.10;;;18.10;99.90;;;;;;5033907;28;20078;-74
2021/09/26 03:02:45;;;;;;;0.10;0.10;;;18.00;99.90;;;;;;5033449;28;20485;-74
2021/09/26 03:05:12;;;;;;;0.10;0.10;;;18.00;99.90;;;;;;5033624;28;20420;-74
2021/09/26 03:07:38;;;;;;;0.20;0.20;;;17.90;99.90;;;;;;5015716;28;20112;-74
2021/09/26 03:10:06;;;;;;;0.10;0.10;;;17.70;99.90;;;;;;5033484;28;20025;-74
2021/09/26 03:12:33;;;;;;;0.10;0.10;;;17.80;99.90;;;;;;5023731;22;20654;-75
2021/09/26 03:14:59;;;;;;;0.10;0.10;;;17.90;99.90;;;;;;4975977;28;20498;-76
2021/09/26 03:17:25;;;;;;;0.10;0.10;;;17.90;99.90;;;;;;4976850;28;20063;-76
2021/09/26 03:19:51;;;;;;;0.20;0.20;;;17.70;99.90;;;;;;4994384;28;20046;-75
2021/09/26 03:22:16;;;;;;;0.10;0.10;;;17.60;99.90;;;;;;4976800;28;20120;-75
2021/09/26 03:24:43;;;;;;;0.10;0.10;;;17.50;99.90;;;;;;4976781;28;20111;-76
2021/09/26 03:27:10;;;;;;;0.10;0.10;;;17.40;99.90;;;;;;4976396;28;20049;-76
2021/09/26 03:29:40;;;;;;;0.10;0.10;;;17.50;99.90;;;;;;4994094;28;20027;-76
2021/09/26 03:32:06;;;;;;;0.10;0.10;;;17.40;99.90;;;;;;4976576;28;20065;-76
2021/09/26 03:34:32;;;;;;;0.10;0.10;;;17.30;99.90;;;;;;4994028;28;20031;-76
2021/09/26 03:36:57;;;;;;;0.20;0.20;;;17.30;99.90;;;;;;4993809;28;20027;-76
2021/09/26 03:39:23;;;;;;;0.10;0.10;;;17.10;99.90;;;;;;4994030;28;20441;-76
2021/09/26 03:41:49;;;;;;;0.10;0.10;;;17.00;99.90;;;;;;4993871;28;20018;-75
2021/09/26 03:44:15;;;;;;;0.03;0.03;;;17.00;99.90;;;;;;4976370;28;20031;-76
2021/09/26 03:46:40;;;;;;;0.10;0.10;;;17.00;99.90;;;;;;4993616;28;20044;-76
2021/09/26 03:49:06;;;;;;;0.10;0.10;;;16.90;99.90;;;;;;4976298;28;20056;-76
2021/09/26 03:51:32;;;;;;;0.10;0.10;;;16.80;99.90;;;;;;4994031;28;20070;-76
2021/09/26 03:53:58;;;;;;;0.10;0.10;;;16.70;99.90;;;;;;4993628;28;20033;-76
2021/09/26 03:56:24;;;;;;;0.10;0.10;;;16.80;99.90;;;;;;4976118;28;20019;-76
2021/09/26 03:58:49;;;;;;;0.10;0.10;;;16.70;99.90;;;;;;4993506;28;20096;-76
2021/09/26 04:01:15;;;;;;;0.10;0.10;;;16.80;99.90;;;;;;4976300;28;20035;-76
2021/09/26 04:03:41;;;;;;;0.10;0.10;;;16.80;99.90;;;;;;4976011;28;20030;-76
2021/09/26 04:06:10;;;;;;;0.10;0.10;;;16.70;99.90;;;;;;4975814;28;20027;-76
2021/09/26 04:08:38;;;;;;;0.10;0.10;;;16.70;99.90;;;;;;4976155;28;20475;-76
2021/09/26 04:11:08;;;;;;;0.10;0.10;;;16.60;99.90;;;;;;4975945;28;20084;-75
2021/09/26 04:13:33;;;;;;;0.10;0.10;;;16.60;99.90;;;;;;4992663;28;20034;-76
2021/09/26 04:15:59;;;;;;;0.10;0.10;;;16.50;99.90;;;;;;4992992;28;20025;-76
2021/09/26 04:18:25;;;;;;;0.20;0.20;;;16.40;99.90;;;;;;4975630;28;20022;-76
2021/09/26 04:20:51;;;;;;;0.03;0.03;;;16.40;99.90;;;;;;4993140;28;20470;-76
2021/09/26 04:23:17;;;;;;;0.10;0.10;;;16.40;99.90;;;;;;4993120;28;20479;-75
2021/09/26 04:25:43;;;;;;;0.10;0.10;;;16.30;99.90;;;;;;4975513;28;20470;-75
2021/09/26 04:28:08;;;;;;;0.10;0.10;;;16.40;99.90;;;;;;4975648;28;20101;-75
2021/09/26 04:30:36;;;;;;;0.20;0.20;;;16.40;99.90;;;;;;4975632;28;20125;-75
2021/09/26 04:33:03;;;;;;;0.45;0.45;;;16.50;99.90;;;;;;4975374;28;20208;-76
2021/09/26 04:35:29;;;;;;;0.13;0.13;;;16.40;99.90;;;;;;4975322;28;20582;-76
2021/09/26 04:37:57;;;;;;;0.10;0.10;;;16.30;99.90;;;;;;4992831;28;20033;-75
2021/09/26 04:40:23;;;;;;;0.90;0.90;;;16.20;99.90;;;;;;4975300;28;20022;-75
2021/09/26 04:42:49;;;;;;;0.20;0.20;;;16.30;99.90;;;;;;4993119;28;20026;-76
2021/09/26 04:45:15;;;;;;;0.20;0.20;;;16.40;99.90;;;;;;4975212;28;20033;-76
2021/09/26 04:47:41;;;;;;;0.08;0.08;;;16.30;99.90;;;;;;4992556;28;20030;-75
2021/09/26 04:50:08;;;;;;;0.50;0.50;;;16.30;99.90;;;;;;4992570;28;20390;-75
2021/09/26 04:52:34;;;;;;;0.20;0.20;;;16.30;99.90;;;;;;4992712;28;20041;-75
2021/09/26 04:55:00;;;;;;;0.10;0.10;;;16.10;99.90;;;;;;4992421;28;20386;-76
2021/09/26 04:57:26;;;;;;;0.10;0.10;;;16.00;99.90;;;;;;4958966;28;20023;-75
2021/09/26 04:59:52;;;;;;;0.10;0.10;;;16.10;99.90;;;;;;4959237;28;20034;-75
2021/09/26 05:02:17;;;;;;;0.10;0.10;;;16.20;99.90;;;;;;4975054;28;20401;-76
2021/09/26 05:04:43;;;;;;;0.10;0.10;;;16.30;99.90;;;;;;4974985;28;20481;-76
2021/09/26 05:07:09;;;;;;;0.10;0.10;;;16.40;99.90;;;;;;4992592;28;20026;-76
2021/09/26 05:09:35;;;;;;;0.98;0.95;;;16.30;99.90;;;;;;4974873;28;20029;-76
2021/09/26 05:12:01;;;;;;;0.10;0.10;;;16.30;99.90;;;;;;4975173;28;20054;-75
2021/09/26 05:14:26;;;;;;;0.10;0.10;;;16.20;99.90;;;;;;4974940;28;20504;-76
2021/09/26 05:16:52;;;;;;;0.10;0.10;;;16.00;99.90;;;;;;4974863;28;20121;-76
2021/09/26 05:19:18;;;;;;;0.20;0.20;;;16.00;99.90;;;;;;4992347;28;20026;-76
2021/09/26 05:21:45;;;;;;;0.10;0.10;;;16.00;99.90;;;;;;4992457;28;20030;-76
2021/09/26 05:24:11;;;;;;;0.20;0.20;;;15.90;99.90;;;;;;4974848;28;20026;-76
2021/09/26 05:26:37;;;;;;;0.70;0.70;;;15.80;99.90;;;;;;4995705;28;20546;-76
2021/09/26 05:29:06;;;;;;;0.20;0.20;;;15.80;99.90;;;;;;4978998;28;20486;-76
2021/09/26 05:31:35;;;;;;;0.20;0.20;;;15.60;99.90;;;;;;4996453;28;20053;-76
2021/09/26 05:34:01;;;;;;;0.40;0.40;;;15.60;99.90;;;;;;4978789;28;20394;-76
2021/09/26 05:36:27;;;;;;;0.10;0.10;;;15.50;99.90;;;;;;4978650;28;20105;-76
2021/09/26 05:38:54;;;;;;;0.20;0.20;;;15.60;99.90;;;;;;4978773;28;20023;-76
2021/09/26 05:41:20;;;;;;;0.20;0.20;;;15.60;99.90;;;;;;4978728;28;20027;-76
2021/09/26 05:43:46;;;;;;;0.20;0.20;;;15.60;99.90;;;;;;4978740;28;20449;-76
2021/09/26 05:46:12;;;;;;;0.10;0.10;;;15.60;99.90;;;;;;4962500;28;20031;-76
2021/09/26 05:48:38;;;;;;;0.13;0.13;;;15.70;99.90;;;;;;4978409;28;20172;-76
2021/09/26 05:51:04;;;;;;;0.10;0.10;;;15.90;99.90;;;;;;4995998;28;20022;-76
2021/09/26 05:53:30;;;;;;;0.10;0.10;;;16.10;99.90;;;;;;4962271;28;20327;-76
2021/09/26 05:55:55;;;;;;;0.10;0.10;;;16.30;99.90;;;;;;4995961;28;20019;-76
2021/09/26 05:58:21;;;;;;;0.20;0.20;;;16.30;99.90;;;;;;4978361;28;20214;-76
2021/09/26 06:00:47;;;;;;;0.10;0.10;;;16.40;99.90;;;;;;4995891;28;20022;-76
2021/09/26 06:03:14;;;;;;;0.10;0.10;;;16.60;99.90;;;;;;4978328;28;20398;-76
2021/09/26 06:05:44;;;;;;;0.10;0.10;;;16.50;99.90;;;;;;4996831;28;20022;-77
2021/09/26 06:08:10;;;;;;;0.28;0.28;;;16.50;99.90;;;;;;4995551;28;20117;-76
2021/09/26 06:10:37;;;;;;;0.10;0.10;;;16.50;99.90;;;;;;4962086;28;20117;-77
2021/09/26 06:13:03;;;;;;;0.10;0.10;;;16.60;99.90;;;;;;4978035;28;20399;-76
2021/09/26 06:15:30;;;;;;;0.10;0.10;;;16.60;99.90;;;;;;4995405;28;20046;-76
2021/09/26 06:17:57;;;;;;;0.10;0.10;;;16.70;99.90;;;;;;4961808;28;20022;-76
2021/09/26 06:20:23;;;;;;;0.10;0.10;;;16.70;99.90;;;;;;4977868;28;20030;-76
2021/09/26 06:22:48;;;;;;;0.10;0.10;;;16.70;99.90;;;;;;4995526;28;20031;-77
2021/09/26 06:25:14;;;;;;;0.15;0.15;;;16.70;99.90;;;;;;4961700;28;20081;-77
2021/09/26 06:27:40;;;;;;;0.00;0.00;;;16.80;99.90;;;;;;4995346;28;20030;-76
2021/09/26 06:30:07;;;;;;;0.13;0.13;;;16.80;99.90;;;;;;4977921;28;20057;-76
2021/09/26 06:32:34;;;;;;;0.45;0.45;;;16.90;99.90;;;;;;4995080;28;20057;-76
2021/09/26 06:35:03;;;;;;;0.10;0.10;;;16.80;99.90;;;;;;4994900;28;20025;-76
2021/09/26 06:37:29;;;;;;;0.80;0.35;;;16.80;99.90;;;;;;4976744;28;20061;-77
2021/09/26 06:39:56;;;;;;;0.30;0.30;;;16.80;99.90;;;;;;4961506;28;20084;-76
2021/09/26 06:42:21;;;;;;;6.22;2.50;;;16.70;99.90;;;;;;4977514;28;20413;-75
2021/09/26 06:44:47;;;;;;;0.75;0.55;;;16.60;99.90;;;;;;4977474;28;20022;-77
2021/09/26 06:47:14;;;;;;;0.43;0.38;;;16.40;99.90;;;;;;4994927;28;20030;-77
2021/09/26 06:49:40;;;;;;;0.10;0.10;;;16.50;99.90;;;;;;4977373;28;20451;-76
2021/09/26 06:52:06;;;;;;;0.20;0.20;;;16.70;99.90;;;;;;4977412;28;20054;-77
2021/09/26 06:54:32;;;;;;;0.10;0.10;;;17.00;99.90;;;;;;4991912;28;20065;-76
2021/09/26 06:56:59;;;;;;;0.10;0.10;;;17.20;99.90;;;;;;4983777;28;20015;-76
2021/09/26 06:59:24;;;;;;;0.10;0.10;;;17.50;99.90;;;;;;4949266;28;20023;-76
2021/09/26 07:01:51;;;;;;;0.10;0.10;;;17.70;99.90;;;;;;4958051;28;20069;-75
2021/09/26 07:04:17;;;;;;;0.10;0.10;;;17.80;99.90;;;;;;4957651;28;20505;-77
2021/09/26 07:06:43;;;;;;;0.10;0.10;;;17.80;99.90;;;;;;4974985;28;20019;-76
2021/09/26 07:09:09;;;;;;;0.10;0.10;;;17.90;99.90;;;;;;4958149;28;20565;-77
2021/09/26 07:11:35;;;;;;;0.17;0.17;;;18.00;99.90;;;;;;4974868;28;20050;-76
2021/09/26 07:14:00;;;;;;;0.10;0.10;;;18.00;99.90;;;;;;4957767;28;20509;-76
2021/09/26 07:16:26;;;;;;;0.10;0.10;;;18.00;99.90;;;;;;4974811;28;20469;-76
2021/09/26 07:18:52;;;;;;;0.10;0.10;;;18.10;99.90;;;;;;4941456;28;20117;-75
2021/09/26 07:21:18;;;;;;;0.70;0.70;;;18.10;99.90;;;;;;4957545;28;20022;-77
2021/09/26 07:23:44;;;;;;;0.15;0.15;;;18.20;99.90;;;;;;4957764;28;20029;-77
2021/09/26 07:26:10;;;;;;;0.10;0.10;;;18.30;99.90;;;;;;4957510;28;20150;-77
2021/09/26 07:28:36;;;;;;;0.10;0.10;;;18.40;99.90;;;;;;4961516;28;20068;-75
2021/09/26 07:31:02;;;;;;;0.10;0.10;;;18.40;99.90;;;;;;4976604;28;20037;-77
2021/09/26 07:33:28;;;;;;;0.10;0.10;;;18.50;99.90;;;;;;4993877;28;20026;-75
2021/09/26 07:35:54;;;;;;;0.17;0.17;;;18.60;99.90;;;;;;4976543;28;20022;-77
2021/09/26 07:38:20;;;;;;;0.10;0.10;;;18.50;99.90;;;;;;4994069;28;20109;-77
2021/09/26 07:40:46;;;;;;;0.10;0.10;;;18.40;99.90;;;;;;4994094;28;20024;-76
2021/09/26 07:43:12;;;;;;;0.10;0.10;;;18.60;99.90;;;;;;4993983;28;20026;-77
2021/09/26 07:45:38;;;;;;;0.10;0.10;;;18.60;99.90;;;;;;4976170;28;20026;-76
2021/09/26 07:48:04;;;;;;;0.10;0.10;;;18.70;99.90;;;;;;4960017;28;20031;-77
2021/09/26 07:50:31;;;;;;;0.10;0.10;;;18.80;99.90;;;;;;4993303;28;20134;-76
2021/09/26 07:52:58;;;;;;;0.10;0.10;;;18.90;99.90;;;;;;4993697;28;20022;-76
2021/09/26 07:55:24;;;;;;;0.10;0.10;;;18.90;99.90;;;;;;4993929;28;20394;-76
2021/09/26 07:57:50;;;;;;;0.68;0.68;;;19.00;99.90;;;;;;4993618;28;20022;-76
2021/09/26 08:00:17;;;;;;;0.10;0.10;;;19.10;99.90;;;;;;4976184;28;20034;-76
2021/09/26 08:02:42;;;;;;;0.63;0.40;;;19.10;99.90;;;;;;4989775;28;20030;-77
2021/09/26 08:05:10;;;;;;;0.10;0.10;;;19.20;99.90;;;;;;4974199;28;20509;-77
2021/09/26 08:07:36;;;;;;;0.10;0.10;;;19.20;99.90;;;;;;4956468;28;20049;-76
2021/09/26 08:10:04;;;;;;;0.17;0.17;;;19.30;99.90;;;;;;4956632;28;20113;-76
2021/09/26 08:12:30;;;;;;;0.10;0.10;;;19.40;99.90;;;;;;4973666;28;20545;-76
2021/09/26 08:14:56;;;;;;;0.10;0.10;;;19.50;99.90;;;;;;4956789;28;20077;-76
2021/09/26 08:17:23;;;;;;;0.10;0.10;;;19.70;99.90;;;;;;4973728;28;20029;-76
2021/09/26 08:19:48;;;;;;;0.10;0.10;;;19.70;99.90;;;;;;4973816;28;20023;-77
2021/09/26 08:22:15;;;;;;;0.10;0.10;;;19.90;99.90;;;;;;4974037;28;20027;-76
2021/09/26 08:24:40;;;;;;;0.10;0.10;;;20.00;99.90;;;;;;4973869;28;20034;-76
2021/09/26 08:27:08;;;;;;;0.20;0.20;;;20.10;99.90;;;;;;4974206;28;20031;-76
2021/09/26 08:29:34;;;;;;;0.10;0.10;;;20.20;99.90;;;;;;4973775;28;20364;-75
2021/09/26 08:32:00;;;;;;;0.20;0.20;;;20.30;99.90;;;;;;4957321;28;20105;-76
2021/09/26 08:34:26;;;;;;;0.10;0.10;;;20.40;99.90;;;;;;4973084;28;20079;-76
2021/09/26 08:36:52;;;;;;;1.15;0.85;;;20.40;99.90;;;;;;4956528;28;20031;-76
2021/09/26 08:39:18;;;;;;;3.50;0.57;;;20.50;99.90;;;;;;4940697;28;20109;-76
2021/09/26 08:41:49;;;;;;;0.20;0.20;;;20.50;99.90;;;;;;4973935;28;20368;-77
2021/09/26 08:44:15;;;;;;;0.10;0.10;;;20.70;99.90;;;;;;4973787;28;20031;-77
2021/09/26 08:46:41;;;;;;;0.30;0.30;;;20.80;99.90;;;;;;4973832;28;20053;-78
2021/09/26 08:49:07;;;;;;;0.22;0.22;;;20.90;99.90;;;;;;4956490;28;20031;-77
2021/09/26 08:51:33;;;;;;;0.10;0.10;;;21.00;99.90;;;;;;4974060;28;20098;-77
2021/09/26 08:53:59;;;;;;;0.20;0.20;;;21.30;99.90;;;;;;4955667;28;20119;-77
2021/09/26 08:56:24;;;;;;;0.03;0.03;;;21.50;98.60;;;;;;4955772;28;20023;-77
2021/09/26 08:58:52;;;;;;;0.10;0.10;;;21.90;98.20;;;;;;4956217;28;20023;-77
2021/09/26 09:01:18;;;;;;;0.10;0.10;;;22.30;96.90;;;;;;4939605;28;20478;-77
2021/09/26 09:03:47;;;;;;;0.28;0.28;;;22.60;94.70;;;;;;4956162;28;20438;-77
2021/09/26 09:06:17;;;;;;;0.22;0.22;;;22.80;93.40;;;;;;4955890;28;20057;-77
2021/09/26 09:08:43;;;;;;;0.00;0.00;;;22.90;92.30;;;;;;4973060;28;20538;-77
2021/09/26 09:11:10;;;;;;;0.10;0.10;;;23.00;92.10;;;;;;4940072;28;20251;-77
2021/09/26 09:13:40;;;;;;;2.28;0.63;;;23.20;91.40;;;;;;4939400;28;20031;-77
2021/09/26 09:16:08;;;;;;;7.22;3.50;;;23.10;91.10;;;;;;4959471;28;20022;-77
2021/09/26 09:18:53;;;;;;;0.00;0.00;;;23.30;91.40;;;;;;4988548;28;20149;-77
2021/09/26 09:21:24;;;;;;;1.13;1.02;;;23.60;91.10;;;;;;4980600;28;20074;-77
2021/09/26 09:23:54;;;;;;;0.10;0.10;;;23.90;89.50;;;;;;4973361;28;20023;-77
2021/09/26 09:26:33;;;;;;;0.55;0.32;;;24.20;88.00;;;;;;4991055;28;20110;-77
2021/09/26 09:29:00;;;;;;;0.00;0.00;;;24.50;85.10;;;;;;4992519;28;20023;-77
2021/09/26 09:31:26;;;;;;;0.65;0.65;;;24.70;81.40;;;;;;4992500;28;20034;-77
2021/09/26 09:33:51;;;;;;;0.20;0.20;;;25.00;79.50;;;;;;4981451;28;20402;-77
2021/09/26 09:36:19;;;;;;;0.03;0.03;;;25.40;78.40;;;;;;5011951;28;20018;-77
2021/09/26 09:38:46;;;;;;;0.47;0.40;;;25.60;75.20;;;;;;5003911;28;20382;-77
2021/09/26 09:41:12;;;;;;;0.40;0.40;;;25.80;74.90;;;;;;4992619;28;20023;-77
2021/09/26 09:43:48;;;;;;;0.10;0.10;;;25.90;73.90;;;;;;4992967;28;20027;-78
2021/09/26 09:46:26;;;;;;;0.00;0.00;;;26.20;70.30;;;;;;4959053;28;20022;-77
2021/09/26 09:49:09;;;;;;;0.00;0.00;;;26.30;69.60;;;;;;4975151;28;20062;-77
2021/09/26 09:51:36;;;;;;;0.08;0.08;;;26.60;68.50;;;;;;4960077;28;20027;-77
2021/09/26 09:54:07;;;;;;;2.72;1.27;;;26.60;67.20;;;;;;4973391;28;20027;-77
2021/09/26 09:56:44;;;;;;;0.03;0.03;;;26.60;68.00;;;;;;4955817;28;20150;-77
2021/09/26 09:59:13;;;;;;;0.30;0.30;;;26.70;67.70;;;;;;4954359;28;20038;-77
2021/09/26 10:01:39;;;;;;;3.83;1.33;;;27.00;66.40;;;;;;4955277;28;20030;-77
2021/09/26 10:04:10;;;;;;;7.75;0.85;;;27.10;64.90;;;;;;4973088;28;20019;-77
2021/09/26 10:06:41;;;;;;;0.80;0.63;;;27.30;64.40;;;;;;4955931;28;20418;-77
2021/09/26 10:09:21;;;;;;;11.35;3.45;;;26.90;65.10;;;;;;4955869;28;20034;-77
2021/09/26 10:11:58;;;;;;;0.00;0.00;;;26.20;67.10;;;;;;4955792;28;20102;-77
2021/09/26 10:14:27;;;;;;;0.20;0.20;;;25.70;69.10;;;;;;4975990;28;20053;-77
2021/09/26 10:16:54;;;;;;;3.80;3.55;;;25.50;69.40;;;;;;4958824;28;20081;-77
2021/09/26 10:19:22;;;;;;;0.63;0.63;;;25.30;70.60;;;;;;4959226;28;20111;-77
2021/09/26 10:21:57;;;;;;;3.30;0.75;;;25.10;71.50;;;;;;4976339;28;20046;-77
2021/09/26 10:24:27;;;;;;;0.95;0.68;;;25.00;72.40;;;;;;4976227;28;20031;-77
2021/09/26 10:26:55;;;;;;;0.00;0.00;;;24.70;74.30;;;;;;4942646;28;20114;-77
2021/09/26 10:29:22;;;;;;;0.00;0.00;;;24.90;73.30;;;;;;4976346;28;20476;-77
2021/09/26 10:31:51;;;;;;;0.10;0.10;;;25.40;72.20;;;;;;4976412;28;20053;-77
2021/09/26 10:34:20;;;;;;;0.10;0.10;;;25.60;71.10;;;;;;4976078;28;20069;-77
2021/09/26 10:36:48;;;;;;;5.13;1.58;;;25.30;70.40;;;;;;4958913;28;20383;-77
2021/09/26 10:39:15;;;;;;;0.10;0.10;;;24.90;70.60;;;;;;4958854;28;20460;-79
2021/09/26 10:42:03;;;;;;;6.00;1.33;;;24.60;71.10;;;;;;4975642;28;20014;-77
2021/09/26 10:44:29;;;;;;;0.30;0.30;;;24.40;71.60;;;;;;4942412;28;20054;-77
2021/09/26 10:47:12;;;;;;;0.00;0.00;;;24.30;73.00;;;;;;4958334;28;20026;-77
2021/09/26 10:49:41;;;;;;;0.00;0.00;;;24.20;74.30;;;;;;4958424;28;20046;-77
2021/09/26 10:52:34;;;;;;;1.00;0.82;;;24.40;74.40;;;;;;4958151;28;20444;-77
2021/09/26 10:55:16;;;;;;;3.33;3.00;;;25.50;71.00;;;;;;4940212;28;20086;-77
2021/09/26 10:58:06;;;;;;;0.60;0.60;;;26.40;67.60;;;;;;4975474;28;20023;-77
2021/09/26 11:00:38;;;;;;;0.10;0.10;;;27.00;65.10;;;;;;4957927;28;20499;-77
2021/09/26 11:03:21;;;;;;;0.00;0.00;;;26.70;63.70;;;;;;4976003;28;20058;-77
2021/09/26 11:05:51;;;;;;;0.00;0.00;;;26.40;64.70;;;;;;4942493;28;20100;-77
2021/09/26 11:08:23;;;;;;;0.10;0.10;;;26.70;65.10;;;;;;4975918;28;20045;-77
2021/09/26 11:10:58;;;;;;;0.17;0.17;;;27.20;63.70;;;;;;4975299;28;20398;-77
2021/09/26 11:13:32;;;;;;;0.05;0.05;;;27.50;63.00;;;;;;4975725;28;20475;-77
2021/09/26 11:16:14;;;;;;;0.00;0.00;;;26.70;62.80;;;;;;4958167;28;20023;-77
2021/09/26 11:19:07;;;;;;;0.70;0.57;;;26.20;63.30;;;;;;4958294;28;20384;-77
2021/09/26 11:21:36;;;;;;;0.00;0.00;;;25.90;64.70;;;;;;4957776;28;20027;-77
2021/09/26 11:24:20;;;;;;;0.00;0.00;;;25.70;66.30;;;;;;4958084;28;20107;-77
2021/09/26 11:27:00;;;;;;;0.10;0.10;;;25.80;67.10;;;;;;4958196;28;20097;-77
2021/09/26 11:29:38;;;;;;;0.05;0.03;;;26.00;67.20;;;;;;4975612;28;20026;-76
2021/09/26 11:32:26;;;;;;;0.30;0.30;;;26.40;66.10;;;;;;4958719;28;20134;-76
2021/09/26 11:34:55;;;;;;;0.00;0.00;;;26.50;65.80;;;;;;4957932;28;20054;-76
2021/09/26 11:37:39;;;;;;;0.10;0.10;;;27.50;63.00;;;;;;4975972;28;20025;-77
2021/09/26 11:40:07;;;;;;;0.32;0.10;;;28.20;60.20;;;;;;4957890;28;20092;-76
2021/09/26 11:42:35;;;;;;;0.88;0.85;;;28.20;60.00;;;;;;4975106;28;20031;-77
2021/09/26 11:45:05;;;;;;;0.00;0.00;;;28.30;59.70;;;;;;4975134;28;20037;-77
2021/09/26 11:47:34;;;;;;;14.07;3.20;;;28.30;60.40;;;;;;4975209;28;20031;-77
2021/09/26 11:50:07;;;;;;;0.65;0.65;;;27.90;60.00;;;;;;4975047;28;20110;-77
2021/09/26 11:52:41;;;;;;;1.23;1.13;;;27.90;61.10;;;;;;4974577;28;20033;-77
2021/09/26 11:55:08;;;;;;;2.17;1.02;;;28.00;60.20;;;;;;4957642;28;20050;-76
2021/09/26 11:57:34;;;;;;;0.30;0.30;;;28.20;59.50;;;;;;4941550;28;20423;-77
2021/09/26 12:00:00;;;;;;;1.92;1.77;;;28.40;58.80;;;;;;4958203;28;20486;-76
2021/09/26 12:02:31;;;;;;;0.20;0.20;;;28.90;57.60;;;;;;4940866;28;20490;-77
2021/09/26 12:04:57;;;;;;;2.72;1.00;;;29.30;56.00;;;;;;4975040;28;20023;-77
2021/09/26 12:07:23;;;;;;;0.10;0.10;;;29.30;55.10;;;;;;4974961;28;20037;-77
2021/09/26 12:09:49;;;;;;;0.00;0.00;;;29.40;53.90;;;;;;4957546;28;20023;-77
2021/09/26 12:12:21;;;;;;;0.13;0.13;;;29.00;54.50;;;;;;4957259;28;20097;-77
2021/09/26 12:14:49;;;;;;;0.10;0.10;;;28.60;54.80;;;;;;4958056;28;20551;-77
2021/09/26 12:17:23;;;;;;;0.10;0.10;;;28.10;56.00;;;;;;4958492;28;20483;-77
2021/09/26 12:19:49;;;;;;;0.00;0.00;;;27.70;56.00;;;;;;4958107;28;20054;-77
2021/09/26 12:22:17;;;;;;;0.00;0.00;;;27.30;56.90;;;;;;4958016;28;20031;-77
2021/09/26 12:24:46;;;;;;;0.00;0.00;;;27.10;58.20;;;;;;4957674;28;20030;-78
2021/09/26 12:27:35;;;;;;;0.00;0.00;;;27.20;56.90;;;;;;4957805;28;20031;-77
2021/09/26 12:30:05;;;;;;;0.00;0.00;;;27.00;57.50;;;;;;4949945;28;20495;-78
2021/09/26 12:33:05;;;;;;;0.00;0.00;;;26.80;58.10;;;;;;4957920;28;20034;-78
2021/09/26 12:35:35;;;;;;;0.38;0.38;;;26.70;57.90;;;;;;4970839;28;20117;-78
2021/09/26 12:38:05;;;;;;;0.00;0.00;;;26.50;57.90;;;;;;4957414;28;20062;-77
2021/09/26 12:40:35;;;;;;;0.00;0.00;;;26.00;59.20;;;;;;4957687;28;20034;-78
2021/09/26 12:43:05;;;;;;;0.00;0.00;;;26.00;59.60;;;;;;4941562;28;20033;-78
2021/09/26 12:45:33;;;;;;;0.10;0.10;;;26.20;60.20;;;;;;4975284;28;20438;-77
2021/09/26 12:48:00;;;;;;;0.00;0.00;;;26.20;61.80;;;;;;4974497;28;20095;-78
2021/09/26 12:50:26;;;;;;;0.00;0.00;;;26.20;61.80;;;;;;4941484;28;20026;-77
2021/09/26 12:52:54;;;;;;;0.00;0.00;;;26.10;62.20;;;;;;4957407;28;20034;-77
2021/09/26 12:55:25;;;;;;;0.00;0.00;;;26.10;63.20;;;;;;4974762;28;20378;-77
2021/09/26 12:57:52;;;;;;;0.00;0.00;;;26.40;63.80;;;;;;4957572;28;20029;-76